createdAt,value
2018-06-08T00:00:48.439Z,1017.82
2018-06-08T00:02:16.144Z,1017.83
2018-06-08T00:03:43.373Z,1017.83
2018-06-08T00:05:10.991Z,1017.82
2018-06-08T00:06:38.491Z,1017.81
2018-06-08T00:08:05.983Z,1017.80
2018-06-08T00:09:33.307Z,1017.79
2018-06-08T00:11:00.957Z,1017.80
2018-06-08T00:12:28.534Z,1017.82
2018-06-08T00:13:55.700Z,1017.82
2018-06-08T00:15:23.272Z,1017.84
2018-06-08T00:16:50.914Z,1017.84
2018-06-08T00:18:18.398Z,1017.85
2018-06-08T00:19:45.717Z,1017.83
2018-06-08T00:21:13.412Z,1017.84
2018-06-08T00:22:40.814Z,1017.84
2018-06-08T00:24:08.357Z,1017.84
2018-06-08T00:25:35.920Z,1017.84
2018-06-08T00:27:03.466Z,1017.83
2018-06-08T00:28:30.994Z,1017.85
2018-06-08T00:29:58.232Z,1017.85
2018-06-08T00:31:25.581Z,1017.85
2018-06-08T00:32:53.093Z,1017.86
2018-06-08T00:34:20.572Z,1017.84
2018-06-08T00:35:48.186Z,1017.85
2018-06-08T00:37:15.768Z,1017.84
2018-06-08T00:38:43.320Z,1017.84
2018-06-08T00:40:10.750Z,1017.84
2018-06-08T00:41:38.346Z,1017.81
2018-06-08T00:43:05.888Z,1017.80
2018-06-08T00:44:33.170Z,1017.79
2018-06-08T00:46:00.687Z,1017.79
2018-06-08T00:47:28.097Z,1017.78
2018-06-08T00:48:55.569Z,1017.77
2018-06-08T00:50:22.951Z,1017.78
2018-06-08T00:51:50.377Z,1017.76
2018-06-08T00:53:18.094Z,1017.77
2018-06-08T00:54:45.499Z,1017.74
2018-06-08T00:56:13.007Z,1017.74
2018-06-08T00:57:40.441Z,1017.74
2018-06-08T00:59:07.983Z,1017.74
2018-06-08T01:00:35.351Z,1017.71
2018-06-08T01:02:02.747Z,1017.70
2018-06-08T01:03:30.019Z,1017.72
2018-06-08T01:04:57.619Z,1017.72
2018-06-08T01:06:24.954Z,1017.71
2018-06-08T01:07:52.368Z,1017.72
2018-06-08T01:09:20.023Z,1017.71
2018-06-08T01:10:47.561Z,1017.69
2018-06-08T01:12:14.934Z,1017.68
2018-06-08T01:13:42.480Z,1017.67
2018-06-08T01:15:09.824Z,1017.64
2018-06-08T01:16:37.578Z,1017.63
2018-06-08T01:18:04.995Z,1017.61
2018-06-08T01:19:32.642Z,1017.60
2018-06-08T01:20:59.959Z,1017.61
2018-06-08T01:22:27.312Z,1017.62
2018-06-08T01:23:54.781Z,1017.61
2018-06-08T01:25:22.427Z,1017.60
2018-06-08T01:26:49.819Z,1017.62
2018-06-08T01:28:17.464Z,1017.63
2018-06-08T01:29:44.967Z,1017.64
2018-06-08T01:31:12.224Z,1017.64
2018-06-08T01:32:39.711Z,1017.64
2018-06-08T01:34:07.123Z,1017.65
2018-06-08T01:35:34.583Z,1017.64
2018-06-08T01:37:01.976Z,1017.66
2018-06-08T01:38:29.095Z,1017.67
2018-06-08T01:39:56.544Z,1017.70
2018-06-08T01:41:23.926Z,1017.67
2018-06-08T01:42:51.214Z,1017.65
2018-06-08T01:44:21.442Z,1017.64
2018-06-08T01:45:46.182Z,1017.64
2018-06-08T01:47:13.744Z,1017.65
2018-06-08T01:48:41.139Z,1017.66
2018-06-08T01:50:08.393Z,1017.68
2018-06-08T01:51:35.855Z,1017.69
2018-06-08T01:53:03.223Z,1017.71
2018-06-08T01:54:30.806Z,1017.70
2018-06-08T01:55:58.089Z,1017.71
2018-06-08T01:57:25.604Z,1017.67
2018-06-08T01:58:52.925Z,1017.69
2018-06-08T02:00:20.695Z,1017.69
2018-06-08T02:01:47.942Z,1017.69
2018-06-08T02:03:15.610Z,1017.71
2018-06-08T02:04:43.135Z,1017.71
2018-06-08T02:06:10.493Z,1017.72
2018-06-08T02:07:37.903Z,1017.71
2018-06-08T02:09:05.008Z,1017.72
2018-06-08T02:10:32.506Z,1017.71
2018-06-08T02:11:59.944Z,1017.74
2018-06-08T02:13:27.306Z,1017.75
2018-06-08T02:14:54.863Z,1017.74
2018-06-08T02:16:22.410Z,1017.71
2018-06-08T02:17:49.766Z,1017.69
2018-06-08T02:19:17.344Z,1017.66
2018-06-08T02:20:44.780Z,1017.63
2018-06-08T02:22:12.112Z,1017.63
2018-06-08T02:23:39.688Z,1017.62
2018-06-08T02:25:07.138Z,1017.64
2018-06-08T02:26:34.575Z,1017.63
2018-06-08T02:28:01.823Z,1017.63
2018-06-08T02:29:29.368Z,1017.62
2018-06-08T02:30:56.783Z,1017.62
2018-06-08T02:32:24.127Z,1017.61
2018-06-08T02:33:51.632Z,1017.61
2018-06-08T02:35:19.305Z,1017.60
2018-06-08T02:36:46.676Z,1017.61
2018-06-08T02:38:14.300Z,1017.60
2018-06-08T02:39:41.770Z,1017.60
2018-06-08T02:41:09.267Z,1017.59
2018-06-08T02:42:36.911Z,1017.60
2018-06-08T02:44:04.244Z,1017.59
2018-06-08T02:45:31.703Z,1017.59
2018-06-08T02:46:59.066Z,1017.61
2018-06-08T02:48:29.476Z,1017.59
2018-06-08T02:49:53.872Z,1017.60
2018-06-08T02:51:21.347Z,1017.59
2018-06-08T02:52:48.696Z,1017.57
2018-06-08T02:54:16.325Z,1017.56
2018-06-08T02:55:43.832Z,1017.55
2018-06-08T02:57:11.308Z,1017.55
2018-06-08T02:58:38.787Z,1017.54
2018-06-08T03:00:06.295Z,1017.54
2018-06-08T03:01:33.670Z,1017.52
2018-06-08T03:03:01.025Z,1017.52
2018-06-08T03:04:28.497Z,1017.52
2018-06-08T03:05:56.171Z,1017.53
2018-06-08T03:07:23.612Z,1017.54
2018-06-08T03:08:51.225Z,1017.54
2018-06-08T03:10:18.687Z,1017.54
2018-06-08T03:11:46.108Z,1017.54
2018-06-08T03:13:13.549Z,1017.52
2018-06-08T03:14:40.906Z,1017.52
2018-06-08T03:16:08.446Z,1017.54
2018-06-08T03:17:35.791Z,1017.56
2018-06-08T03:19:03.141Z,1017.59
2018-06-08T03:20:30.634Z,1017.64
2018-06-08T03:21:58.103Z,1017.64
2018-06-08T03:23:25.460Z,1017.65
2018-06-08T03:24:53.048Z,1017.63
2018-06-08T03:26:20.714Z,1017.63
2018-06-08T03:27:48.182Z,1017.63
2018-06-08T03:29:15.608Z,1017.62
2018-06-08T03:30:43.101Z,1017.63
2018-06-08T03:32:10.575Z,1017.62
2018-06-08T03:33:38.039Z,1017.63
2018-06-08T03:35:05.571Z,1017.63
2018-06-08T03:36:33.074Z,1017.63
2018-06-08T03:38:00.585Z,1017.64
2018-06-08T03:39:28.013Z,1017.64
2018-06-08T03:40:55.539Z,1017.62
2018-06-08T03:42:23.170Z,1017.63
2018-06-08T03:43:50.535Z,1017.63
2018-06-08T03:45:18.118Z,1017.63
2018-06-08T03:46:45.648Z,1017.62
2018-06-08T03:48:13.076Z,1017.61
2018-06-08T03:49:40.590Z,1017.61
2018-06-08T03:51:08.045Z,1017.59
2018-06-08T03:52:35.584Z,1017.58
2018-06-08T03:54:03.139Z,1017.57
2018-06-08T03:55:30.513Z,1017.57
2018-06-08T03:56:58.025Z,1017.58
2018-06-08T03:58:25.724Z,1017.57
2018-06-08T03:59:53.437Z,1017.57
2018-06-08T04:01:20.864Z,1017.56
2018-06-08T04:02:48.488Z,1017.55
2018-06-08T04:04:16.035Z,1017.53
2018-06-08T04:05:43.684Z,1017.53
2018-06-08T04:07:11.207Z,1017.53
2018-06-08T04:08:38.735Z,1017.55
2018-06-08T04:10:06.419Z,1017.55
2018-06-08T04:11:33.949Z,1017.54
2018-06-08T04:13:01.300Z,1017.53
2018-06-08T04:14:28.900Z,1017.52
2018-06-08T04:15:56.403Z,1017.52
2018-06-08T04:17:23.739Z,1017.52
2018-06-08T04:18:51.347Z,1017.51
2018-06-08T04:20:18.922Z,1017.53
2018-06-08T04:21:46.337Z,1017.55
2018-06-08T04:23:13.703Z,1017.53
2018-06-08T04:24:41.055Z,1017.52
2018-06-08T04:26:08.651Z,1017.52
2018-06-08T04:27:35.894Z,1017.51
2018-06-08T04:29:03.509Z,1017.53
2018-06-08T04:30:30.994Z,1017.53
2018-06-08T04:31:58.489Z,1017.51
2018-06-08T04:33:26.039Z,1017.53
2018-06-08T04:34:53.571Z,1017.55
2018-06-08T04:36:20.919Z,1017.56
2018-06-08T04:37:48.402Z,1017.58
2018-06-08T04:39:15.931Z,1017.58
2018-06-08T04:40:43.631Z,1017.58
2018-06-08T04:42:10.960Z,1017.59
2018-06-08T04:43:38.728Z,1017.57
2018-06-08T04:45:06.339Z,1017.58
2018-06-08T04:46:33.588Z,1017.59
2018-06-08T04:48:01.055Z,1017.57
2018-06-08T04:49:28.538Z,1017.58
2018-06-08T04:50:55.963Z,1017.61
2018-06-08T04:52:23.447Z,1017.65
2018-06-08T04:53:51.127Z,1017.65
2018-06-08T04:55:18.713Z,1017.62
2018-06-08T04:56:46.244Z,1017.60
2018-06-08T04:58:13.788Z,1017.61
2018-06-08T04:59:41.486Z,1017.59
2018-06-08T05:01:08.857Z,1017.58
2018-06-08T05:02:36.265Z,1017.58
2018-06-08T05:04:03.621Z,1017.59
2018-06-08T05:05:31.241Z,1017.58
2018-06-08T05:06:58.851Z,1017.60
2018-06-08T05:08:26.400Z,1017.59
2018-06-08T05:09:53.945Z,1017.59
2018-06-08T05:11:21.520Z,1017.60
2018-06-08T05:12:48.982Z,1017.60
2018-06-08T05:14:16.532Z,1017.57
2018-06-08T05:15:44.278Z,1017.57
2018-06-08T05:17:11.869Z,1017.53
2018-06-08T05:18:39.463Z,1017.52
2018-06-08T05:20:07.032Z,1017.49
2018-06-08T05:21:34.694Z,1017.47
2018-06-08T05:23:02.152Z,1017.46
2018-06-08T05:24:29.585Z,1017.46
2018-06-08T05:25:56.936Z,1017.46
2018-06-08T05:27:24.269Z,1017.46
2018-06-08T05:28:51.843Z,1017.48
2018-06-08T05:30:19.418Z,1017.48
2018-06-08T05:31:47.037Z,1017.49
2018-06-08T05:33:14.645Z,1017.50
2018-06-08T05:34:42.216Z,1017.51
2018-06-08T05:36:10.009Z,1017.49
2018-06-08T05:37:37.621Z,1017.48
2018-06-08T05:39:05.230Z,1017.46
2018-06-08T05:40:32.777Z,1017.44
2018-06-08T05:42:00.381Z,1017.44
2018-06-08T05:43:27.877Z,1017.43
2018-06-08T05:44:55.413Z,1017.42
2018-06-08T05:46:23.106Z,1017.42
2018-06-08T05:47:50.772Z,1017.44
2018-06-08T05:49:18.254Z,1017.45
2018-06-08T05:50:45.675Z,1017.41
2018-06-08T05:52:13.210Z,1017.41
2018-06-08T05:53:40.792Z,1017.40
2018-06-08T05:55:08.356Z,1017.38
2018-06-08T05:56:35.861Z,1017.37
2018-06-08T05:58:03.385Z,1017.38
2018-06-08T05:59:31.096Z,1017.41
2018-06-08T06:00:58.771Z,1017.41
2018-06-08T06:02:26.269Z,1017.43
2018-06-08T06:03:53.770Z,1017.44
2018-06-08T06:05:21.323Z,1017.42
2018-06-08T06:06:50.087Z,1017.43
2018-06-08T06:08:16.801Z,1017.40
2018-06-08T06:09:44.378Z,1017.40
2018-06-08T06:11:11.919Z,1017.40
2018-06-08T06:12:39.704Z,1017.39
2018-06-08T06:14:07.261Z,1017.38
2018-06-08T06:15:34.845Z,1017.37
2018-06-08T06:17:02.340Z,1017.37
2018-06-08T06:18:29.941Z,1017.37
2018-06-08T06:19:57.487Z,1017.38
2018-06-08T06:21:25.158Z,1017.38
2018-06-08T06:22:52.570Z,1017.40
2018-06-08T06:24:20.279Z,1017.40
2018-06-08T06:25:48.225Z,1017.41
2018-06-08T06:27:15.789Z,1017.40
2018-06-08T06:28:43.416Z,1017.43
2018-06-08T06:30:11.050Z,1017.44
2018-06-08T06:31:38.643Z,1017.48
2018-06-08T06:33:06.526Z,1017.48
2018-06-08T06:34:34.229Z,1017.45
2018-06-08T06:36:01.928Z,1017.42
2018-06-08T06:37:29.336Z,1017.43
2018-06-08T06:38:57.182Z,1017.38
2018-06-08T06:40:24.986Z,1017.34
2018-06-08T06:41:52.697Z,1017.32
2018-06-08T06:43:20.518Z,1017.31
2018-06-08T06:44:48.259Z,1017.32
2018-06-08T06:46:15.859Z,1017.30
2018-06-08T06:47:43.608Z,1017.24
2018-06-08T06:49:11.402Z,1017.26
2018-06-08T06:50:38.998Z,1017.23
2018-06-08T06:52:06.696Z,1017.23
2018-06-08T06:53:34.448Z,1017.22
2018-06-08T06:55:02.131Z,1017.27
2018-06-08T06:56:29.637Z,1017.28
2018-06-08T06:57:57.430Z,1017.28
2018-06-08T06:59:25.189Z,1017.27
2018-06-08T07:00:52.655Z,1017.29
2018-06-08T07:02:20.367Z,1017.30
2018-06-08T07:03:47.791Z,1017.31
2018-06-08T07:05:15.457Z,1017.32
2018-06-08T07:06:43.170Z,1017.34
2018-06-08T07:08:10.679Z,1017.35
2018-06-08T07:09:38.407Z,1017.35
2018-06-08T07:11:05.874Z,1017.37
2018-06-08T07:12:33.460Z,1017.39
2018-06-08T07:14:00.830Z,1017.38
2018-06-08T07:15:28.565Z,1017.40
2018-06-08T07:16:56.166Z,1017.42
2018-06-08T07:18:23.862Z,1017.42
2018-06-08T07:19:51.550Z,1017.42
2018-06-08T07:21:19.186Z,1017.42
2018-06-08T07:22:46.733Z,1017.43
2018-06-08T07:24:14.311Z,1017.43
2018-06-08T07:25:42.146Z,1017.44
2018-06-08T07:27:09.593Z,1017.47
2018-06-08T07:28:37.321Z,1017.49
2018-06-08T07:30:05.040Z,1017.51
2018-06-08T07:31:32.663Z,1017.55
2018-06-08T07:33:00.218Z,1017.52
2018-06-08T07:34:27.638Z,1017.52
2018-06-08T07:35:55.297Z,1017.51
2018-06-08T07:37:23.093Z,1017.50
2018-06-08T07:38:50.401Z,1017.52
2018-06-08T07:40:18.112Z,1017.51
2018-06-08T07:41:45.680Z,1017.50
2018-06-08T07:43:13.276Z,1017.47
2018-06-08T07:44:40.901Z,1017.44
2018-06-08T07:46:08.528Z,1017.44
2018-06-08T07:47:36.251Z,1017.43
2018-06-08T07:49:03.681Z,1017.43
2018-06-08T07:50:31.486Z,1017.44
2018-06-08T07:51:58.961Z,1017.45
2018-06-08T07:53:26.582Z,1017.42
2018-06-08T07:54:54.245Z,1017.44
2018-06-08T07:56:21.938Z,1017.41
2018-06-08T07:57:49.667Z,1017.40
2018-06-08T07:59:17.288Z,1017.41
2018-06-08T08:00:44.918Z,1017.39
2018-06-08T08:02:12.614Z,1017.38
2018-06-08T08:03:40.259Z,1017.39
2018-06-08T08:05:07.773Z,1017.37
2018-06-08T08:06:35.416Z,1017.36
2018-06-08T08:08:03.075Z,1017.38
2018-06-08T08:09:30.704Z,1017.37
2018-06-08T08:10:58.393Z,1017.37
2018-06-08T08:12:25.935Z,1017.35
2018-06-08T08:13:53.677Z,1017.35
2018-06-08T08:15:21.141Z,1017.36
2018-06-08T08:16:48.677Z,1017.34
2018-06-08T08:18:16.270Z,1017.30
2018-06-08T08:19:43.876Z,1017.29
2018-06-08T08:21:11.515Z,1017.23
2018-06-08T08:22:39.226Z,1017.22
2018-06-08T08:24:06.688Z,1017.21
2018-06-08T08:25:34.471Z,1017.18
2018-06-08T08:27:02.160Z,1017.21
2018-06-08T08:28:29.647Z,1017.18
2018-06-08T08:29:57.142Z,1017.18
2018-06-08T08:31:24.772Z,1017.20
2018-06-08T08:32:52.577Z,1017.21
2018-06-08T08:34:20.303Z,1017.20
2018-06-08T08:35:47.866Z,1017.21
2018-06-08T08:37:15.516Z,1017.24
2018-06-08T08:38:43.276Z,1017.23
2018-06-08T08:40:10.963Z,1017.26
2018-06-08T08:41:38.600Z,1017.26
2018-06-08T08:43:06.161Z,1017.26
2018-06-08T08:44:33.936Z,1017.24
2018-06-08T08:46:01.565Z,1017.23
2018-06-08T08:47:29.066Z,1017.17
2018-06-08T08:48:56.500Z,1017.17
2018-06-08T08:50:24.110Z,1017.17
2018-06-08T08:51:51.814Z,1017.18
2018-06-08T08:53:19.566Z,1017.16
2018-06-08T08:54:46.967Z,1017.16
2018-06-08T08:56:14.654Z,1017.23
2018-06-08T08:57:42.336Z,1017.16
2018-06-08T08:59:09.942Z,1017.19
2018-06-08T09:00:38.356Z,1017.16
2018-06-08T09:02:05.167Z,1017.16
2018-06-08T09:03:32.749Z,1017.12
2018-06-08T09:05:00.390Z,1017.14
2018-06-08T09:06:28.097Z,1017.14
2018-06-08T09:07:55.694Z,1017.11
2018-06-08T09:09:23.370Z,1017.11
2018-06-08T09:10:50.996Z,1017.07
2018-06-08T09:12:18.627Z,1017.07
2018-06-08T09:13:46.194Z,1017.09
2018-06-08T09:15:13.640Z,1017.08
2018-06-08T09:16:41.343Z,1017.10
2018-06-08T09:18:08.706Z,1017.12
2018-06-08T09:19:36.267Z,1017.13
2018-06-08T09:21:03.956Z,1017.13
2018-06-08T09:22:31.633Z,1017.07
2018-06-08T09:23:59.000Z,1017.08
2018-06-08T09:25:26.764Z,1017.09
2018-06-08T09:26:54.300Z,1017.09
2018-06-08T09:28:21.911Z,1017.08
2018-06-08T09:29:49.643Z,1017.08
2018-06-08T09:31:17.346Z,1017.06
2018-06-08T09:32:45.179Z,1017.04
2018-06-08T09:34:12.698Z,1017.00
2018-06-08T09:35:40.362Z,1016.98
2018-06-08T09:37:07.819Z,1016.97
2018-06-08T09:38:35.525Z,1016.99
2018-06-08T09:40:03.232Z,1016.94
2018-06-08T09:41:30.805Z,1016.96
2018-06-08T09:42:58.562Z,1016.96
2018-06-08T09:44:26.232Z,1016.93
2018-06-08T09:45:53.953Z,1016.92
2018-06-08T09:47:21.509Z,1016.89
2018-06-08T09:48:49.025Z,1016.96
2018-06-08T09:50:16.331Z,1016.92
2018-06-08T09:51:43.992Z,1016.89
2018-06-08T09:53:11.721Z,1016.89
2018-06-08T09:54:39.227Z,1016.89
2018-06-08T09:56:06.789Z,1016.92
2018-06-08T09:57:34.222Z,1016.92
2018-06-08T09:59:02.170Z,1016.89
2018-06-08T10:00:29.520Z,1016.88
2018-06-08T10:01:57.115Z,1016.89
2018-06-08T10:03:24.591Z,1016.89
2018-06-08T10:04:51.932Z,1016.86
2018-06-08T10:06:20.079Z,1016.84
2018-06-08T10:07:47.404Z,1016.84
2018-06-08T10:09:15.040Z,1016.79
2018-06-08T10:10:42.687Z,1016.77
2018-06-08T10:12:09.998Z,1016.81
2018-06-08T10:13:37.162Z,1016.87
2018-06-08T10:15:05.120Z,1016.86
2018-06-08T10:16:32.569Z,1016.83
2018-06-08T10:17:59.857Z,1016.83
2018-06-08T10:19:27.481Z,1016.82
2018-06-08T10:20:55.097Z,1016.78
2018-06-08T10:22:22.565Z,1016.76
2018-06-08T10:23:50.042Z,1016.77
2018-06-08T10:25:17.552Z,1016.76
2018-06-08T10:26:45.090Z,1016.74
2018-06-08T10:28:12.595Z,1016.77
2018-06-08T10:29:40.224Z,1016.73
2018-06-08T10:31:07.846Z,1016.71
2018-06-08T10:32:35.514Z,1016.71
2018-06-08T10:34:03.235Z,1016.67
2018-06-08T10:35:30.823Z,1016.67
2018-06-08T10:36:58.503Z,1016.67
2018-06-08T10:38:26.171Z,1016.67
2018-06-08T10:39:53.851Z,1016.67
2018-06-08T10:41:21.621Z,1016.71
2018-06-08T10:42:49.172Z,1016.72
2018-06-08T10:44:16.956Z,1016.67
2018-06-08T10:45:44.546Z,1016.65
2018-06-08T10:47:12.089Z,1016.68
2018-06-08T10:48:39.934Z,1016.68
2018-06-08T10:50:07.258Z,1016.68
2018-06-08T10:51:35.055Z,1016.66
2018-06-08T10:53:02.743Z,1016.62
2018-06-08T10:54:30.443Z,1016.54
2018-06-08T10:55:58.158Z,1016.53
2018-06-08T10:57:25.537Z,1016.46
2018-06-08T10:58:52.962Z,1016.55
2018-06-08T11:00:20.396Z,1016.59
2018-06-08T11:01:47.919Z,1016.54
2018-06-08T11:03:15.264Z,1016.53
2018-06-08T11:04:42.973Z,1016.51
2018-06-08T11:06:10.539Z,1016.53
2018-06-08T11:07:38.234Z,1016.54
2018-06-08T11:09:05.677Z,1016.50
2018-06-08T11:10:33.283Z,1016.53
2018-06-08T11:12:00.826Z,1016.52
2018-06-08T11:13:28.834Z,1016.49
2018-06-08T11:14:56.631Z,1016.45
2018-06-08T11:16:25.594Z,1016.48
2018-06-08T11:17:51.993Z,1016.45
2018-06-08T11:19:19.453Z,1016.47
2018-06-08T11:20:47.087Z,1016.42
2018-06-08T11:22:14.679Z,1016.38
2018-06-08T11:23:41.972Z,1016.35
2018-06-08T11:25:09.648Z,1016.35
2018-06-08T11:26:36.825Z,1016.36
2018-06-08T11:28:04.245Z,1016.38
2018-06-08T11:29:31.823Z,1016.39
2018-06-08T11:30:59.472Z,1016.38
2018-06-08T11:32:26.934Z,1016.36
2018-06-08T11:33:54.735Z,1016.35
2018-06-08T11:35:22.161Z,1016.35
2018-06-08T11:36:49.801Z,1016.34
2018-06-08T11:38:17.547Z,1016.29
2018-06-08T11:39:45.194Z,1016.25
2018-06-08T11:41:12.637Z,1016.25
2018-06-08T11:42:40.349Z,1016.22
2018-06-08T11:44:07.915Z,1016.16
2018-06-08T11:45:35.720Z,1016.16
2018-06-08T11:47:03.430Z,1016.15
2018-06-08T11:48:31.090Z,1016.22
2018-06-08T11:49:58.983Z,1016.23
2018-06-08T11:51:26.679Z,1016.20
2018-06-08T11:52:54.490Z,1016.21
2018-06-08T11:54:22.256Z,1016.14
2018-06-08T11:55:50.245Z,1016.15
2018-06-08T11:57:17.811Z,1016.14
2018-06-08T11:58:45.615Z,1016.10
2018-06-08T12:00:13.270Z,1016.08
2018-06-08T12:01:40.921Z,1016.13
2018-06-08T12:03:08.645Z,1016.13
2018-06-08T12:04:36.380Z,1016.14
2018-06-08T12:06:04.091Z,1016.08
2018-06-08T12:07:31.840Z,1016.17
2018-06-08T12:08:59.286Z,1016.10
2018-06-08T12:10:27.036Z,1016.13
2018-06-08T12:11:54.784Z,1016.09
2018-06-08T12:13:22.557Z,1016.08
2018-06-08T12:14:50.183Z,1016.08
2018-06-08T12:16:17.960Z,1016.06
2018-06-08T12:17:45.590Z,1016.04
2018-06-08T12:19:13.339Z,1016.03
2018-06-08T12:20:40.773Z,1016.01
2018-06-08T12:22:08.225Z,1015.93
2018-06-08T12:23:36.018Z,1015.89
2018-06-08T12:25:03.681Z,1015.88
2018-06-08T12:26:31.290Z,1015.93
2018-06-08T12:27:58.839Z,1015.91
2018-06-08T12:29:26.635Z,1015.96
2018-06-08T12:30:54.371Z,1015.95
2018-06-08T12:32:22.195Z,1015.91
2018-06-08T12:33:49.914Z,1015.92
2018-06-08T12:35:17.641Z,1015.89
2018-06-08T12:36:45.452Z,1015.88
2018-06-08T12:38:13.170Z,1015.87
2018-06-08T12:39:40.894Z,1015.84
2018-06-08T12:41:08.564Z,1015.82
2018-06-08T12:42:36.304Z,1015.83
2018-06-08T12:44:03.905Z,1015.81
2018-06-08T12:45:31.574Z,1015.79
2018-06-08T12:46:59.005Z,1015.77
2018-06-08T12:48:26.706Z,1015.81
2018-06-08T12:49:54.429Z,1015.76
2018-06-08T12:51:22.203Z,1015.76
2018-06-08T12:52:49.847Z,1015.75
2018-06-08T12:54:17.611Z,1015.72
2018-06-08T12:55:45.309Z,1015.72
2018-06-08T12:57:13.053Z,1015.77
2018-06-08T12:58:40.750Z,1015.75
2018-06-08T13:00:08.372Z,1015.78
2018-06-08T13:01:35.993Z,1015.78
2018-06-08T13:03:03.675Z,1015.77
2018-06-08T13:04:31.258Z,1015.74
2018-06-08T13:05:58.781Z,1015.73
2018-06-08T13:07:26.509Z,1015.73
2018-06-08T13:08:54.241Z,1015.69
2018-06-08T13:10:21.880Z,1015.68
2018-06-08T13:11:49.630Z,1015.72
2018-06-08T13:13:17.400Z,1015.68
2018-06-08T13:14:45.184Z,1015.63
2018-06-08T13:16:12.853Z,1015.67
2018-06-08T13:17:40.506Z,1015.66
2018-06-08T13:19:08.126Z,1015.63
2018-06-08T13:20:35.710Z,1015.64
2018-06-08T13:22:03.471Z,1015.65
2018-06-08T13:23:31.082Z,1015.65
2018-06-08T13:24:58.843Z,1015.59
2018-06-08T13:26:26.478Z,1015.60
2018-06-08T13:27:54.275Z,1015.55
2018-06-08T13:29:21.957Z,1015.57
2018-06-08T13:30:49.748Z,1015.54
2018-06-08T13:32:17.518Z,1015.55
2018-06-08T13:33:45.175Z,1015.48
2018-06-08T13:35:12.890Z,1015.46
2018-06-08T13:36:40.346Z,1015.44
2018-06-08T13:38:08.153Z,1015.46
2018-06-08T13:39:35.805Z,1015.43
2018-06-08T13:41:03.336Z,1015.46
2018-06-08T13:42:30.849Z,1015.47
2018-06-08T13:43:58.532Z,1015.47
2018-06-08T13:45:26.237Z,1015.43
2018-06-08T13:46:53.979Z,1015.44
2018-06-08T13:48:21.582Z,1015.42
2018-06-08T13:49:49.324Z,1015.45
2018-06-08T13:51:17.077Z,1015.41
2018-06-08T13:52:44.718Z,1015.43
2018-06-08T13:54:12.504Z,1015.41
2018-06-08T13:55:40.218Z,1015.44
2018-06-08T13:57:07.980Z,1015.42
2018-06-08T13:58:35.557Z,1015.44
2018-06-08T14:00:03.202Z,1015.47
2018-06-08T14:01:30.813Z,1015.48
2018-06-08T14:02:58.576Z,1015.50
2018-06-08T14:04:25.472Z,1015.46
2018-06-08T14:05:53.020Z,1015.46
2018-06-08T14:07:20.831Z,1015.45
2018-06-08T14:08:48.486Z,1015.48
2018-06-08T14:10:16.230Z,1015.48
2018-06-08T14:11:43.915Z,1015.48
2018-06-08T14:13:11.528Z,1015.49
2018-06-08T14:14:39.218Z,1015.50
2018-06-08T14:16:06.813Z,1015.50
2018-06-08T14:17:34.526Z,1015.52
2018-06-08T14:19:02.205Z,1015.49
2018-06-08T14:20:29.846Z,1015.49
2018-06-08T14:21:57.551Z,1015.47
2018-06-08T14:23:24.827Z,1015.53
2018-06-08T14:24:52.569Z,1015.52
2018-06-08T14:26:20.234Z,1015.51
2018-06-08T14:27:47.989Z,1015.49
2018-06-08T14:29:15.584Z,1015.48
2018-06-08T14:30:43.275Z,1015.45
2018-06-08T14:32:10.861Z,1015.43
2018-06-08T14:33:38.560Z,1015.44
2018-06-08T14:35:05.835Z,1015.40
2018-06-08T14:36:33.413Z,1015.42
2018-06-08T14:38:01.009Z,1015.41
2018-06-08T14:39:28.667Z,1015.43
2018-06-08T14:40:56.513Z,1015.42
2018-06-08T14:42:24.163Z,1015.40
2018-06-08T14:43:51.838Z,1015.39
2018-06-08T14:45:19.018Z,1015.43
2018-06-08T14:46:46.785Z,1015.42
2018-06-08T14:48:14.547Z,1015.40
2018-06-08T14:49:41.640Z,1015.38
2018-06-08T14:51:09.192Z,1015.38
2018-06-08T14:52:36.421Z,1015.38
2018-06-08T14:54:04.096Z,1015.38
2018-06-08T14:55:31.861Z,1015.38
2018-06-08T14:56:59.277Z,1015.38
2018-06-08T14:58:27.134Z,1015.39
2018-06-08T14:59:54.865Z,1015.39
2018-06-08T15:01:22.340Z,1015.43
2018-06-08T15:02:50.137Z,1015.40
2018-06-08T15:04:17.727Z,1015.40
2018-06-08T15:05:44.908Z,1015.42
2018-06-08T15:07:12.561Z,1015.42
2018-06-08T15:08:40.040Z,1015.41
2018-06-08T15:10:07.545Z,1015.38
2018-06-08T15:11:35.305Z,1015.35
2018-06-08T15:13:02.542Z,1015.36
2018-06-08T15:14:30.198Z,1015.36
2018-06-08T15:15:57.732Z,1015.34
2018-06-08T15:17:25.340Z,1015.28
2018-06-08T15:18:53.051Z,1015.30
2018-06-08T15:20:20.830Z,1015.31
2018-06-08T15:21:48.561Z,1015.31
2018-06-08T15:23:16.237Z,1015.31
2018-06-08T15:24:43.896Z,1015.32
2018-06-08T15:26:11.577Z,1015.29
2018-06-08T15:27:39.332Z,1015.30
2018-06-08T15:29:06.982Z,1015.32
2018-06-08T15:30:34.758Z,1015.29
2018-06-08T15:32:02.155Z,1015.28
2018-06-08T15:33:29.770Z,1015.31
2018-06-08T15:34:57.165Z,1015.32
2018-06-08T15:36:24.818Z,1015.30
2018-06-08T15:37:52.443Z,1015.29
2018-06-08T15:39:20.007Z,1015.26
2018-06-08T15:40:47.661Z,1015.26
2018-06-08T15:42:15.349Z,1015.24
2018-06-08T15:43:43.175Z,1015.23
2018-06-08T15:45:10.812Z,1015.27
2018-06-08T15:46:38.476Z,1015.26
2018-06-08T15:48:06.127Z,1015.25
2018-06-08T15:49:33.817Z,1015.26
2018-06-08T15:51:01.560Z,1015.22
2018-06-08T15:52:29.074Z,1015.20
2018-06-08T15:53:56.796Z,1015.19
2018-06-08T15:55:24.405Z,1015.18
2018-06-08T15:56:52.154Z,1015.17
2018-06-08T15:58:19.926Z,1015.17
2018-06-08T15:59:47.565Z,1015.18
2018-06-08T16:01:15.380Z,1015.17
2018-06-08T16:02:43.005Z,1015.18
2018-06-08T16:04:10.671Z,1015.19
2018-06-08T16:05:38.307Z,1015.19
2018-06-08T16:07:06.010Z,1015.17
2018-06-08T16:08:41.690Z,1015.16
2018-06-08T16:10:01.156Z,1015.14
2018-06-08T16:11:29.104Z,1015.15
2018-06-08T16:12:56.684Z,1015.11
2018-06-08T16:14:24.417Z,1015.09
2018-06-08T16:15:52.111Z,1015.06
2018-06-08T16:17:19.897Z,1015.02
2018-06-08T16:18:47.669Z,1014.99
2018-06-08T16:20:15.160Z,1014.99
2018-06-08T16:21:42.720Z,1014.99
2018-06-08T16:23:10.274Z,1014.99
2018-06-08T16:24:38.038Z,1014.99
2018-06-08T16:26:05.631Z,1015.00
2018-06-08T16:27:33.509Z,1015.01
2018-06-08T16:29:01.128Z,1015.02
2018-06-08T16:30:28.516Z,1015.05
2018-06-08T16:31:55.912Z,1015.04
2018-06-08T16:33:23.674Z,1015.00
2018-06-08T16:34:51.314Z,1015.03
2018-06-08T16:36:19.063Z,1015.02
2018-06-08T16:37:46.712Z,1015.03
2018-06-08T16:39:14.357Z,1015.02
2018-06-08T16:40:41.928Z,1015.04
2018-06-08T16:42:09.534Z,1015.04
2018-06-08T16:43:37.238Z,1015.03
2018-06-08T16:45:04.677Z,1015.05
2018-06-08T16:46:32.292Z,1015.06
2018-06-08T16:48:00.081Z,1015.08
2018-06-08T16:49:27.831Z,1015.08
2018-06-08T16:50:55.574Z,1015.10
2018-06-08T16:52:23.099Z,1015.10
2018-06-08T16:53:50.807Z,1015.11
2018-06-08T16:55:18.419Z,1015.12
2018-06-08T16:56:45.886Z,1015.12
2018-06-08T16:58:13.579Z,1015.12
2018-06-08T16:59:41.206Z,1015.10
2018-06-08T17:01:08.947Z,1015.13
2018-06-08T17:02:36.586Z,1015.12
2018-06-08T17:04:04.303Z,1015.12
2018-06-08T17:05:32.008Z,1015.14
2018-06-08T17:06:59.471Z,1015.13
2018-06-08T17:08:27.356Z,1015.12
2018-06-08T17:09:55.001Z,1015.18
2018-06-08T17:11:22.674Z,1015.18
2018-06-08T17:12:50.363Z,1015.23
2018-06-08T17:14:18.117Z,1015.21
2018-06-08T17:15:45.686Z,1015.23
2018-06-08T17:17:13.352Z,1015.25
2018-06-08T17:18:40.913Z,1015.24
2018-06-08T17:20:08.480Z,1015.23
2018-06-08T17:21:36.243Z,1015.21
2018-06-08T17:23:03.973Z,1015.23
2018-06-08T17:24:31.678Z,1015.26
2018-06-08T17:25:59.209Z,1015.30
2018-06-08T17:27:26.877Z,1015.32
2018-06-08T17:28:54.580Z,1015.32
2018-06-08T17:30:21.713Z,1015.31
2018-06-08T17:31:49.557Z,1015.32
2018-06-08T17:33:17.204Z,1015.29
2018-06-08T17:34:44.858Z,1015.29
2018-06-08T17:36:12.612Z,1015.31
2018-06-08T17:37:40.266Z,1015.31
2018-06-08T17:39:07.880Z,1015.33